Terminal Aerodrome Forecast
Issued by NWS

Home | Current Version | Previous Version | Text Only | Print | Product List | Glossary On
Versions: 1 2 3 4 5 6 7 8 9 10 11 12 13 14 15 16 17
000
FTUS44 KLZK 301700
TAFHOT
TAF
KHOT 301725Z 3018/3118 15005KT P6SM VCSH SCT040 BKN060
     FM310000 13005KT P6SM VCSH SCT015 BKN025
     FM310600 VRB02KT 4SM BR VCSH BKN015 OVC025
      TEMPO 3109/3113 2SM BR BKN010 OVC015
     FM311500 21006KT P6SM SCT015 BKN025
     FM311700 20008KT P6SM SCT025 BKN040
      AMD NOT SKED=

USA.gov is the U.S. government's official web portal to all federal, state and local government web resources and services.